createdAt,value
2019-04-11T00:01:35.042Z,83.61
2019-04-11T00:03:53.565Z,83.61
2019-04-11T00:06:23.521Z,84.15
2019-04-11T00:08:52.840Z,84.01
2019-04-11T00:11:22.304Z,84.07
2019-04-11T00:13:51.698Z,84.53
2019-04-11T00:16:21.446Z,84.76
2019-04-11T00:18:51.391Z,85.28
2019-04-11T00:21:20.789Z,84.79
2019-04-11T00:23:50.380Z,84.88
2019-04-11T00:26:20.171Z,84.92
2019-04-11T00:28:50.379Z,84.56
2019-04-11T00:31:20.904Z,84.47
2019-04-11T00:33:50.827Z,85.03
2019-04-11T00:36:20.207Z,84.92
2019-04-11T00:38:50.031Z,84.68
2019-04-11T00:41:19.302Z,84.87
2019-04-11T00:43:48.552Z,85.85
2019-04-11T00:46:18.342Z,86.02
2019-04-11T00:48:48.098Z,86.32
2019-04-11T00:51:18.680Z,86.06
2019-04-11T00:53:48.169Z,85.47
2019-04-11T00:56:17.865Z,85.49
2019-04-11T00:58:47.223Z,85.33
2019-04-11T01:01:18.384Z,86.30
2019-04-11T01:03:47.595Z,85.73
2019-04-11T01:06:18.223Z,85.32
2019-04-11T01:08:48.186Z,85.33
2019-04-11T01:11:17.537Z,85.56
2019-04-11T01:13:52.386Z,85.61
2019-04-11T01:16:45.099Z,86.06
2019-04-11T01:19:14.420Z,86.17
2019-04-11T01:21:44.516Z,85.95
2019-04-11T01:24:15.555Z,86.91
2019-04-11T01:26:45.506Z,86.56
2019-04-11T01:29:15.448Z,86.58
2019-04-11T01:31:54.184Z,86.70
2019-04-11T01:34:24.496Z,87.00
2019-04-11T01:36:53.905Z,87.03
2019-04-11T01:39:45.372Z,86.83
2019-04-11T01:42:16.133Z,87.04
2019-04-11T01:44:47.452Z,87.25
2019-04-11T01:47:39.347Z,86.92
2019-04-11T01:50:08.920Z,86.74
2019-04-11T01:52:38.322Z,87.28
2019-04-11T01:55:08.233Z,87.40
2019-04-11T01:57:38.117Z,87.92
2019-04-11T02:00:08.054Z,88.01
2019-04-11T02:02:52.914Z,88.02
2019-04-11T02:05:29.819Z,88.16
2019-04-11T02:07:59.180Z,88.28
2019-04-11T02:10:28.758Z,88.55
2019-04-11T02:12:58.221Z,88.44
2019-04-11T02:15:28.307Z,88.65
2019-04-11T02:17:57.824Z,88.13
2019-04-11T02:20:27.174Z,88.48
2019-04-11T02:23:13.308Z,88.52
2019-04-11T02:26:05.083Z,88.44
2019-04-11T02:28:34.925Z,88.46
2019-04-11T02:31:05.556Z,88.76
2019-04-11T02:33:37.085Z,88.83
2019-04-11T02:36:07.926Z,88.56
2019-04-11T02:38:39.082Z,89.25
2019-04-11T02:41:10.613Z,89.06
2019-04-11T02:43:42.712Z,89.04
2019-04-11T02:46:20.425Z,89.17
2019-04-11T02:48:42.716Z,89.36
2019-04-11T02:51:12.534Z,89.60
2019-04-11T02:53:43.235Z,89.75
2019-04-11T02:56:13.065Z,89.91
2019-04-11T02:58:44.000Z,89.63
2019-04-11T03:01:13.574Z,89.70
2019-04-11T03:03:42.943Z,90.48
2019-04-11T03:06:12.245Z,90.44
2019-04-11T03:08:43.097Z,90.47
2019-04-11T03:11:14.201Z,90.52
2019-04-11T03:13:44.362Z,90.86
2019-04-11T03:16:29.608Z,90.97
2019-04-11T03:18:59.224Z,90.89
2019-04-11T03:21:20.511Z,91.07
2019-04-11T03:23:49.200Z,91.42
2019-04-11T03:26:18.969Z,91.42
2019-04-11T03:28:50.238Z,91.46
2019-04-11T03:32:04.735Z,91.43
2019-04-11T03:34:44.559Z,91.41
2019-04-11T03:37:10.058Z,91.22
2019-04-11T03:39:15.321Z,91.70
2019-04-11T03:41:42.736Z,91.94
2019-04-11T03:44:03.940Z,92.32
2019-04-11T03:46:42.133Z,92.51
2019-04-11T03:49:09.336Z,93.24
2019-04-11T03:51:29.675Z,93.34
2019-04-11T03:53:59.275Z,93.04
2019-04-11T03:56:30.432Z,92.85
2019-04-11T03:59:01.298Z,93.10
2019-04-11T04:01:31.957Z,92.97
2019-04-11T04:04:02.815Z,92.95
2019-04-11T04:06:33.527Z,93.17
2019-04-11T04:09:03.707Z,93.42
2019-04-11T04:11:34.711Z,93.27
2019-04-11T04:14:24.295Z,93.37
2019-04-11T04:17:03.763Z,93.80
2019-04-11T04:19:45.645Z,93.65
2019-04-11T04:22:31.440Z,93.20
2019-04-11T04:25:01.485Z,93.20
2019-04-11T04:27:33.089Z,93.36
2019-04-11T04:30:05.362Z,93.70
2019-04-11T04:32:36.079Z,93.11
2019-04-11T04:35:10.164Z,93.46
2019-04-11T04:37:38.634Z,93.42
2019-04-11T04:40:24.109Z,93.31
2019-04-11T04:42:45.812Z,93.31
2019-04-11T04:45:12.371Z,93.70
2019-04-11T04:47:47.813Z,93.18
2019-04-11T04:50:13.338Z,93.55
2019-04-11T04:52:44.844Z,94.12
2019-04-11T04:55:17.258Z,94.12
2019-04-11T04:57:46.660Z,93.90
2019-04-11T05:00:18.920Z,93.80
2019-04-11T05:02:50.338Z,94.67
2019-04-11T05:05:19.713Z,94.54
2019-04-11T05:07:49.790Z,94.60
2019-04-11T05:10:20.029Z,94.82
2019-04-11T05:12:49.559Z,94.85
2019-04-11T05:15:18.853Z,94.44
2019-04-11T05:17:49.186Z,95.11
2019-04-11T05:20:19.713Z,95.29
2019-04-11T05:22:49.300Z,95.71
2019-04-11T05:25:20.099Z,95.68
2019-04-11T05:27:49.706Z,95.36
2019-04-11T05:30:19.073Z,95.59
2019-04-11T05:32:49.339Z,95.60
2019-04-11T05:35:18.599Z,95.69
2019-04-11T05:37:47.873Z,95.66
2019-04-11T05:40:17.195Z,95.95
2019-04-11T05:42:51.030Z,95.98
2019-04-11T05:45:21.571Z,95.71
2019-04-11T05:47:53.545Z,95.75
2019-04-11T05:50:26.275Z,95.86
2019-04-11T05:52:56.738Z,95.81
2019-04-11T05:55:27.996Z,95.84
2019-04-11T05:57:58.709Z,95.83
2019-04-11T06:00:53.282Z,95.54
2019-04-11T06:03:23.907Z,95.63
2019-04-11T06:06:14.661Z,95.78
2019-04-11T06:08:44.225Z,95.99
2019-04-11T06:11:39.087Z,95.97
2019-04-11T06:14:33.344Z,95.87
2019-04-11T06:17:05.738Z,95.71
2019-04-11T06:20:06.185Z,95.67
2019-04-11T06:22:38.142Z,95.48
2019-04-11T06:25:30.967Z,95.42
2019-04-11T06:28:09.506Z,95.19
2019-04-11T06:31:06.186Z,95.32
2019-04-11T06:33:38.113Z,95.37
2019-04-11T06:36:26.748Z,95.49
2019-04-11T06:39:15.485Z,94.49
2019-04-11T06:42:04.208Z,94.80
2019-04-11T06:44:50.744Z,95.00
2019-04-11T06:47:43.164Z,93.36
2019-04-11T06:50:23.621Z,94.02
2019-04-11T06:52:53.196Z,92.85
2019-04-11T06:55:40.291Z,92.61
2019-04-11T06:58:14.981Z,89.95
2019-04-11T07:00:47.659Z,90.11
2019-04-11T07:03:25.513Z,89.14
2019-04-11T07:05:51.733Z,87.71
2019-04-11T07:08:23.954Z,87.01
2019-04-11T07:10:58.855Z,86.32
2019-04-11T07:13:41.276Z,85.84
2019-04-11T07:16:11.296Z,86.00
2019-04-11T07:19:02.903Z,85.52
2019-04-11T07:21:35.468Z,84.83
2019-04-11T07:24:22.405Z,82.94
2019-04-11T07:27:07.368Z,83.40
2019-04-11T07:30:05.255Z,83.75
2019-04-11T07:32:34.619Z,83.19
2019-04-11T07:35:30.207Z,82.80
2019-04-11T07:38:01.076Z,82.06
2019-04-11T07:40:47.710Z,82.15
2019-04-11T07:43:29.197Z,82.33
2019-04-11T07:46:25.113Z,81.94
2019-04-11T07:48:57.174Z,83.29
2019-04-11T07:51:34.344Z,81.59
2019-04-11T07:54:07.027Z,81.87
2019-04-11T07:56:55.078Z,81.54
2019-04-11T07:59:39.699Z,80.63
2019-04-11T08:02:26.885Z,80.58
2019-04-11T08:05:09.792Z,79.69
2019-04-11T08:07:51.832Z,79.23
2019-04-11T08:10:27.693Z,78.42
2019-04-11T08:12:58.247Z,77.94
2019-04-11T08:15:46.018Z,78.13
2019-04-11T08:18:24.435Z,77.50
2019-04-11T08:21:15.726Z,76.70
2019-04-11T08:23:47.908Z,75.80
2019-04-11T08:26:48.429Z,74.61
2019-04-11T08:29:20.047Z,75.19
2019-04-11T08:32:09.497Z,73.59
2019-04-11T08:34:45.936Z,74.45
2019-04-11T08:37:33.647Z,73.27
2019-04-11T08:40:04.060Z,72.45
2019-04-11T08:43:07.314Z,73.05
2019-04-11T08:45:38.642Z,71.59
2019-04-11T08:48:08.828Z,71.12
2019-04-11T08:50:42.822Z,70.88
2019-04-11T08:53:29.456Z,70.78
2019-04-11T08:56:02.594Z,70.59
2019-04-11T08:58:49.645Z,68.98
2019-04-11T09:01:20.191Z,68.44
2019-04-11T09:04:13.687Z,67.93
2019-04-11T09:06:43.054Z,67.76
2019-04-11T09:09:38.060Z,67.89
2019-04-11T09:12:10.490Z,67.13
2019-04-11T09:15:08.600Z,65.90
2019-04-11T09:17:58.881Z,64.73
2019-04-11T09:20:38.652Z,64.19
2019-04-11T09:23:09.788Z,63.97
2019-04-11T09:25:56.624Z,62.04
2019-04-11T09:28:44.048Z,61.25
2019-04-11T09:31:41.677Z,60.63
2019-04-11T09:34:25.948Z,59.26
2019-04-11T09:37:14.436Z,60.16
2019-04-11T09:39:59.945Z,58.84
2019-04-11T09:43:07.185Z,57.99
2019-04-11T09:46:06.243Z,58.48
2019-04-11T09:48:44.359Z,57.10
2019-04-11T09:51:45.994Z,56.75
2019-04-11T09:54:33.899Z,56.36
2019-04-11T09:57:22.921Z,55.55
2019-04-11T10:00:26.703Z,60.07
2019-04-11T10:03:13.217Z,53.92
2019-04-11T10:06:05.718Z,50.86
2019-04-11T10:08:39.741Z,51.89
2019-04-11T10:11:27.892Z,52.79
2019-04-11T10:14:01.544Z,53.62
2019-04-11T10:16:48.706Z,51.55
2019-04-11T10:19:36.028Z,51.63
2019-04-11T10:22:23.704Z,52.03
2019-04-11T10:25:15.001Z,53.87
2019-04-11T10:28:03.185Z,50.71
2019-04-11T10:31:00.416Z,46.61
2019-04-11T10:33:49.009Z,46.90
2019-04-11T10:36:25.829Z,44.64
2019-04-11T10:39:29.194Z,42.78
2019-04-11T10:42:02.193Z,42.45
2019-04-11T10:44:54.118Z,40.67
2019-04-11T10:47:25.137Z,41.12
2019-04-11T10:50:28.486Z,36.82
2019-04-11T10:53:02.762Z,38.46
2019-04-11T10:55:57.866Z,39.82
2019-04-11T10:58:33.708Z,41.08
2019-04-11T11:01:28.362Z,40.63
2019-04-11T11:04:11.612Z,41.02
2019-04-11T11:06:41.980Z,42.54
2019-04-11T11:09:22.202Z,43.72
2019-04-11T11:12:00.898Z,44.02
2019-04-11T11:14:53.253Z,43.61
2019-04-11T11:17:54.522Z,42.55
2019-04-11T11:20:28.825Z,43.69
2019-04-11T11:23:29.057Z,43.89
2019-04-11T11:26:07.059Z,44.23
2019-04-11T11:28:41.225Z,45.87
2019-04-11T11:31:28.037Z,43.54
2019-04-11T11:33:58.822Z,43.24
2019-04-11T11:37:03.412Z,44.60
2019-04-11T11:39:53.247Z,43.65
2019-04-11T11:42:56.639Z,43.51
2019-04-11T11:45:49.140Z,45.59
2019-04-11T11:48:31.501Z,45.42
2019-04-11T11:51:03.394Z,44.52
2019-04-11T11:53:45.346Z,45.97
2019-04-11T11:56:15.851Z,45.38
2019-04-11T11:59:23.062Z,43.31
2019-04-11T12:01:55.858Z,43.22
2019-04-11T12:04:42.704Z,43.75
2019-04-11T12:07:14.733Z,41.62
2019-04-11T12:10:13.250Z,43.33
2019-04-11T12:13:05.881Z,41.85
2019-04-11T12:15:51.123Z,42.05
2019-04-11T12:18:43.754Z,42.32
2019-04-11T12:21:16.335Z,41.68
2019-04-11T12:24:06.541Z,40.79
2019-04-11T12:26:37.871Z,40.18
2019-04-11T12:29:28.692Z,42.69
2019-04-11T12:31:59.829Z,44.15
2019-04-11T12:34:36.927Z,43.56
2019-04-11T12:37:10.583Z,42.74
2019-04-11T12:39:57.260Z,38.16
2019-04-11T12:42:30.064Z,39.55
2019-04-11T12:45:30.490Z,38.64
2019-04-11T12:48:01.225Z,38.69
2019-04-11T12:50:47.828Z,40.21
2019-04-11T12:53:19.163Z,37.61
2019-04-11T12:55:57.773Z,37.47
2019-04-11T12:58:33.984Z,35.77
2019-04-11T13:01:20.994Z,39.20
2019-04-11T13:04:12.081Z,38.43
2019-04-11T13:07:03.431Z,35.70
2019-04-11T13:09:43.838Z,34.32
2019-04-11T13:12:19.507Z,36.22
2019-04-11T13:14:59.751Z,38.11
2019-04-11T13:17:32.553Z,40.47
2019-04-11T13:20:19.384Z,40.32
2019-04-11T13:22:50.113Z,39.27
2019-04-11T13:25:40.848Z,38.29
2019-04-11T13:28:10.129Z,37.90
2019-04-11T13:31:13.298Z,40.25
2019-04-11T13:33:42.539Z,38.86
2019-04-11T13:36:26.599Z,37.03
2019-04-11T13:38:55.911Z,36.19
2019-04-11T13:41:47.318Z,35.97
2019-04-11T13:44:22.787Z,36.91
2019-04-11T13:47:20.394Z,37.16
2019-04-11T13:49:58.146Z,35.75
2019-04-11T13:52:46.368Z,34.99
2019-04-11T13:55:34.058Z,37.38
2019-04-11T13:58:20.732Z,37.44
2019-04-11T14:00:54.012Z,35.58
2019-04-11T14:03:44.807Z,34.39
2019-04-11T14:06:25.507Z,36.58
2019-04-11T14:09:09.310Z,36.73
2019-04-11T14:11:42.443Z,35.27
2019-04-11T14:14:17.889Z,35.83
2019-04-11T14:16:55.184Z,40.13
2019-04-11T14:19:41.421Z,41.05
2019-04-11T14:22:13.603Z,39.71
2019-04-11T14:25:15.109Z,39.63
2019-04-11T14:27:49.350Z,38.68
2019-04-11T14:30:36.277Z,40.68
2019-04-11T14:33:06.044Z,40.46
2019-04-11T14:35:52.513Z,40.77
2019-04-11T14:38:23.442Z,40.05
2019-04-11T14:41:09.794Z,38.39
2019-04-11T14:43:54.190Z,37.27
2019-04-11T14:46:55.207Z,37.17
2019-04-11T14:49:27.046Z,37.39
2019-04-11T14:52:33.117Z,41.60
2019-04-11T14:55:03.548Z,40.51
2019-04-11T14:57:46.905Z,42.49
2019-04-11T15:00:41.700Z,42.82
2019-04-11T15:03:28.454Z,42.57
2019-04-11T15:06:15.367Z,43.54
2019-04-11T15:08:55.346Z,46.09
2019-04-11T15:11:49.698Z,45.92
2019-04-11T15:14:30.818Z,46.78
2019-04-11T15:17:14.669Z,45.80
2019-04-11T15:19:47.309Z,45.11
2019-04-11T15:22:25.705Z,45.69
2019-04-11T15:24:58.820Z,44.50
2019-04-11T15:28:07.908Z,46.84
2019-04-11T15:30:52.862Z,46.58
2019-04-11T15:33:59.258Z,45.42
2019-04-11T15:36:28.703Z,46.70
2019-04-11T15:39:15.590Z,46.73
2019-04-11T15:41:45.159Z,46.09
2019-04-11T15:44:45.512Z,46.96
2019-04-11T15:47:18.720Z,46.87
2019-04-11T15:50:09.088Z,46.53
2019-04-11T15:52:41.408Z,47.19
2019-04-11T15:55:47.910Z,48.10
2019-04-11T15:58:17.589Z,47.76
2019-04-11T16:00:54.568Z,49.30
2019-04-11T16:03:25.285Z,49.16
2019-04-11T16:06:16.796Z,48.23
2019-04-11T16:08:52.152Z,47.16
2019-04-11T16:11:43.473Z,47.61
2019-04-11T16:14:16.842Z,47.58
2019-04-11T16:17:13.850Z,47.80
2019-04-11T16:20:07.317Z,46.96
2019-04-11T16:23:10.529Z,46.02
2019-04-11T16:25:42.405Z,46.96
2019-04-11T16:28:28.960Z,46.32
2019-04-11T16:30:59.607Z,46.04
2019-04-11T16:33:46.899Z,46.05
2019-04-11T16:36:33.573Z,46.67
2019-04-11T16:39:21.765Z,47.49
2019-04-11T16:41:56.494Z,49.09
2019-04-11T16:44:56.389Z,48.22
2019-04-11T16:47:44.652Z,49.36
2019-04-11T16:50:14.133Z,49.24
2019-04-11T16:52:43.446Z,50.36
2019-04-11T16:55:12.928Z,49.91
2019-04-11T16:57:44.323Z,50.08
2019-04-11T17:00:14.725Z,50.28
2019-04-11T17:02:44.068Z,49.37
2019-04-11T17:05:13.489Z,49.55
2019-04-11T17:08:13.948Z,49.10
2019-04-11T17:11:05.611Z,48.49
2019-04-11T17:13:34.917Z,48.52
2019-04-11T17:16:05.637Z,47.90
2019-04-11T17:18:35.098Z,47.92
2019-04-11T17:21:07.824Z,46.96
2019-04-11T17:23:35.595Z,47.39
2019-04-11T17:26:06.225Z,47.43
2019-04-11T17:28:36.141Z,47.41
2019-04-11T17:31:05.537Z,47.27
2019-04-11T17:33:35.062Z,47.93
2019-04-11T17:36:04.469Z,48.07
2019-04-11T17:38:36.888Z,47.85
2019-04-11T17:41:04.991Z,47.80
2019-04-11T17:43:34.298Z,47.97
2019-04-11T17:46:03.651Z,48.19
2019-04-11T17:48:33.055Z,47.59
2019-04-11T17:51:04.835Z,48.14
2019-04-11T17:53:33.610Z,48.33
2019-04-11T17:56:02.816Z,48.66
2019-04-11T17:58:32.572Z,49.04
2019-04-11T18:01:05.118Z,49.18
2019-04-11T18:03:33.577Z,49.22
2019-04-11T18:06:02.841Z,49.48
2019-04-11T18:08:32.318Z,49.71
2019-04-11T18:11:01.663Z,49.97
2019-04-11T18:13:31.727Z,50.05
2019-04-11T18:16:01.896Z,50.26
2019-04-11T18:18:34.863Z,50.13
2019-04-11T18:21:02.423Z,49.87
2019-04-11T18:23:31.864Z,50.14
2019-04-11T18:26:01.242Z,50.13
2019-04-11T18:28:30.957Z,50.24
2019-04-11T18:31:00.324Z,50.22
2019-04-11T18:33:31.788Z,50.47
2019-04-11T18:36:02.260Z,50.57
2019-04-11T18:38:32.687Z,51.02
2019-04-11T18:41:02.042Z,51.39
2019-04-11T18:43:32.029Z,51.48
2019-04-11T18:46:03.121Z,51.39
2019-04-11T18:48:32.581Z,51.69
2019-04-11T18:51:02.041Z,52.07
2019-04-11T18:53:31.513Z,52.33
2019-04-11T18:56:01.727Z,52.31
2019-04-11T18:58:33.713Z,53.08
2019-04-11T19:01:02.344Z,53.12
2019-04-11T19:03:36.354Z,53.22
2019-04-11T19:06:03.061Z,53.39
2019-04-11T19:08:32.381Z,54.04
2019-04-11T19:11:02.013Z,54.15
2019-04-11T19:13:31.441Z,54.85
2019-04-11T19:16:01.058Z,55.27
2019-04-11T19:18:30.528Z,55.48
2019-04-11T19:20:59.828Z,55.20
2019-04-11T19:23:29.155Z,55.25
2019-04-11T19:25:58.579Z,55.10
2019-04-11T19:28:27.948Z,55.10
2019-04-11T19:30:57.678Z,55.20
2019-04-11T19:33:27.141Z,54.88
2019-04-11T19:35:56.528Z,54.84
2019-04-11T19:38:27.974Z,54.78
2019-04-11T19:40:57.350Z,54.93
2019-04-11T19:43:27.098Z,55.06
2019-04-11T19:45:58.688Z,55.25
2019-04-11T19:48:27.661Z,55.48
2019-04-11T19:50:58.829Z,55.70
2019-04-11T19:53:28.163Z,56.04
2019-04-11T19:56:09.305Z,56.31
2019-04-11T19:58:39.293Z,56.58
2019-04-11T20:01:08.862Z,56.96
2019-04-11T20:03:38.317Z,57.29
2019-04-11T20:06:07.711Z,57.61
2019-04-11T20:08:37.643Z,57.91
2019-04-11T20:11:08.629Z,58.13
2019-04-11T20:13:38.075Z,58.35
2019-04-11T20:16:07.391Z,58.58
2019-04-11T20:18:36.665Z,58.78
2019-04-11T20:21:07.590Z,59.00
2019-04-11T20:23:41.499Z,59.28
2019-04-11T20:26:08.469Z,59.50
2019-04-11T20:28:37.909Z,59.80
2019-04-11T20:31:07.218Z,60.13
2019-04-11T20:33:36.606Z,60.92
2019-04-11T20:36:08.227Z,60.91
2019-04-11T20:38:37.167Z,61.19
2019-04-11T20:41:06.589Z,61.38
2019-04-11T20:43:35.909Z,61.58
2019-04-11T20:46:05.769Z,61.77
2019-04-11T20:48:35.341Z,61.74
2019-04-11T20:51:04.769Z,61.74
2019-04-11T20:53:36.704Z,61.86
2019-04-11T20:56:09.573Z,61.91
2019-04-11T20:58:36.626Z,61.89
2019-04-11T21:01:06.155Z,62.00
2019-04-11T21:03:35.510Z,61.94
2019-04-11T21:06:05.035Z,61.86
2019-04-11T21:08:36.640Z,61.83
2019-04-11T21:11:06.116Z,61.68
2019-04-11T21:13:38.129Z,61.57
2019-04-11T21:16:06.410Z,61.51
2019-04-11T21:18:35.654Z,61.40
2019-04-11T21:21:05.203Z,61.34
2019-04-11T21:23:34.468Z,61.30
2019-04-11T21:26:03.761Z,61.19
2019-04-11T21:28:33.081Z,61.14
2019-04-11T21:31:02.545Z,61.10
2019-04-11T21:33:34.977Z,61.10
2019-04-11T21:36:03.640Z,61.07
2019-04-11T21:38:33.089Z,61.02
2019-04-11T21:41:05.946Z,61.07
2019-04-11T21:43:35.917Z,61.00
2019-04-11T21:46:06.794Z,60.98
2019-04-11T21:48:36.642Z,61.01
2019-04-11T21:51:05.996Z,61.02
2019-04-11T21:53:37.132Z,61.05
2019-04-11T21:56:06.399Z,61.22
2019-04-11T21:58:36.119Z,61.27
2019-04-11T22:01:10.270Z,61.26
2019-04-11T22:03:39.673Z,61.20
2019-04-11T22:06:09.004Z,61.20
2019-04-11T22:08:38.373Z,60.95
2019-04-11T22:11:10.048Z,60.97
2019-04-11T22:13:40.395Z,60.79
2019-04-11T22:16:13.146Z,60.77
2019-04-11T22:18:44.308Z,60.69
2019-04-11T22:21:15.559Z,60.56
2019-04-11T22:23:49.033Z,60.56
2019-04-11T22:26:15.993Z,60.46
2019-04-11T22:28:45.398Z,60.34
2019-04-11T22:31:14.890Z,60.36
2019-04-11T22:33:48.225Z,60.46
2019-04-11T22:36:18.150Z,60.81
2019-04-11T22:38:47.733Z,61.02
2019-04-11T22:41:16.934Z,60.98
2019-04-11T22:43:46.261Z,60.72
2019-04-11T22:46:20.481Z,60.66
2019-04-11T22:48:46.694Z,59.99
2019-04-11T22:51:16.414Z,58.81
2019-04-11T22:53:45.833Z,57.40
2019-04-11T22:56:15.245Z,56.43
2019-04-11T22:58:44.755Z,56.17
2019-04-11T23:01:16.531Z,55.79
2019-04-11T23:03:49.124Z,55.81
2019-04-11T23:06:18.914Z,55.94
2019-04-11T23:08:48.980Z,55.19
2019-04-11T23:11:18.968Z,54.11
2019-04-11T23:13:48.256Z,54.03
2019-04-11T23:16:17.651Z,54.05
2019-04-11T23:18:47.348Z,53.94
2019-04-11T23:21:16.733Z,53.68
2019-04-11T23:23:46.089Z,53.94
2019-04-11T23:26:15.770Z,53.72
2019-04-11T23:28:46.739Z,53.77
2019-04-11T23:31:19.735Z,53.78
2019-04-11T23:33:51.682Z,54.19
2019-04-11T23:36:21.258Z,53.72
2019-04-11T23:38:52.618Z,53.76
2019-04-11T23:41:21.483Z,53.74
2019-04-11T23:43:50.955Z,53.89
2019-04-11T23:46:21.447Z,53.89
2019-04-11T23:48:54.533Z,53.87
2019-04-11T23:51:25.384Z,53.71
2019-04-11T23:53:53.467Z,53.74
2019-04-11T23:56:22.688Z,54.08
2019-04-11T23:58:52.070Z,54.22
